CST,Max TemperatureF,Mean TemperatureF,Min TemperatureF,Max Dew PointF,MeanDew PointF,Min DewpointF,Max Humidity, Mean Humidity, Min Humidity, Max Sea Level PressureIn, Mean Sea Level PressureIn, Min Sea Level PressureIn, Max VisibilityMiles, Mean VisibilityMiles, Min VisibilityMiles, Max Wind SpeedMPH, Mean Wind SpeedMPH, Max Gust SpeedMPH,PrecipitationIn, CloudCover, Events, WindDirDegrees
2012-11-1,63,47,31,42,33,24,82,64,46,30.00,29.95,29.89,10,10,9,20,9,24,0.00,3,,296
2012-11-2,48,39,30,31,28,26,85,66,46,30.12,30.06,30.01,10,10,10,16,10,20,0.00,1,,69
2012-11-3,53,43,33,34,30,28,82,62,41,30.22,30.16,30.08,10,10,8,13,7,16,0.00,4,Rain,68
2012-11-4,48,40,31,37,35,29,89,77,65,30.25,30.20,30.12,10,9,5,12,7,14,0.02,7,Rain,152
2012-11-5,43,41,38,38,36,34,92,81,70,30.16,30.12,30.08,9,6,3,16,9,21,0.19,8,Rain,104
2012-11-6,50,45,39,42,37,35,92,79,66,30.08,29.95,29.86,10,6,2,23,11,29,0.01,8,Rain,237
2012-11-7,47,40,32,37,33,28,85,69,53,30.16,30.09,29.95,10,9,2,28,8,35,T,6,,321
2012-11-8,57,44,31,37,34,29,89,68,47,30.16,30.06,29.97,10,10,10,20,11,23,0.00,0,Rain,163
2012-11-9,63,52,40,52,44,36,83,70,56,29.96,29.89,29.82,10,10,10,13,8,16,0.00,2,Rain,141
2012-11-10,77,67,57,57,52,46,86,66,45,29.82,29.73,29.67,10,10,10,29,19,37,0.00,0,Rain,175
2012-11-11,65,45,25,56,40,15,96,78,60,30.14,29.81,29.65,10,6,1,26,13,31,1.28,7,Rain-Snow-Thunderstorm,284
2012-11-12,38,30,22,22,18,15,81,65,48,30.42,30.27,30.16,10,10,10,23,11,31,0.00,0,,260
2012-11-13,48,33,18,27,22,15,84,63,41,30.50,30.44,30.39,10,10,10,14,7,16,0.00,0,,174
2012-11-14,57,46,34,30,27,23,70,49,27,30.41,30.35,30.30,10,10,10,17,10,23,0.00,1,,180
2012-11-15,58,46,34,32,29,25,82,59,35,30.40,30.32,30.28,10,10,10,14,8,16,0.00,0,,222
2012-11-16,55,40,25,37,31,24,92,68,43,30.47,30.43,30.40,10,9,5,9,4,9,0.00,0,,343
2012-11-17,59,47,34,34,31,29,89,63,36,30.45,30.39,30.33,10,9,7,21,11,24,0.00,0,Rain,161
2012-11-18,61,49,37,33,31,29,76,56,35,30.32,30.26,30.19,10,10,9,17,12,22,0.00,0,,163
2012-11-19,59,49,39,47,42,32,93,70,46,30.19,30.10,30.04,10,8,0,20,10,23,0.09,3,Fog-Rain,167
2012-11-20,58,46,33,47,38,32,100,81,62,30.21,30.13,30.03,10,3,0,12,6,13,0.00,0,Fog-Rain,299
2012-11-21,68,51,33,46,38,33,100,66,32,30.19,30.13,29.97,10,5,0,18,11,24,0.00,0,Fog,180
2012-11-22,65,52,38,49,39,29,76,62,47,30.11,29.90,29.74,10,10,10,30,16,40,0.00,1,,222
2012-11-23,39,30,20,30,16,12,68,59,49,30.40,30.31,30.13,10,10,9,32,20,43,0.00,2,Snow,306
2012-11-24,34,26,17,21,16,11,80,66,51,30.38,30.19,29.89,10,10,10,14,8,21,0.00,0,,213
2012-11-25,41,35,29,26,25,22,78,66,54,30.15,29.99,29.86,10,10,10,17,8,20,0.00,3,,311
2012-11-26,33,22,11,24,15,6,73,63,53,30.47,30.34,30.16,10,10,10,20,10,25,0.00,5,,349
2012-11-27,36,23,9,16,11,5,84,61,38,30.47,30.38,30.27,10,10,10,15,7,20,0.00,1,,224
2012-11-28,47,32,16,25,21,14,84,63,41,30.44,30.33,30.21,10,10,10,12,6,14,0.00,0,,217
2012-11-29,53,41,29,34,30,24,82,64,46,30.20,30.08,29.99,10,10,9,15,8,21,0.00,0,,171
2012-11-30,54,40,26,38,32,25,100,77,54,30.09,30.04,29.98,10,6,1,10,4,12,0.00,0,,77